createdAt,value
2018-11-03T00:00:34.647Z,9.27
2018-11-03T00:03:03.819Z,7.97
2018-11-03T00:05:32.787Z,8.00
2018-11-03T00:08:01.738Z,8.50
2018-11-03T00:10:30.688Z,8.37
2018-11-03T00:12:59.682Z,9.07
2018-11-03T00:15:28.651Z,9.10
2018-11-03T00:17:57.843Z,9.63
2018-11-03T00:20:26.778Z,9.40
2018-11-03T00:22:55.976Z,10.03
2018-11-03T00:25:24.940Z,10.17
2018-11-03T00:27:56.925Z,10.03
2018-11-03T00:30:25.852Z,10.13
2018-11-03T00:32:55.037Z,10.47
2018-11-03T00:35:23.994Z,10.60
2018-11-03T00:37:52.925Z,10.90
2018-11-03T00:40:22.201Z,10.93
2018-11-03T00:42:51.367Z,11.10
2018-11-03T00:45:20.327Z,12.07
2018-11-03T00:47:49.284Z,12.33
2018-11-03T00:50:18.245Z,12.97
2018-11-03T00:52:47.178Z,13.00
2018-11-03T00:55:16.408Z,12.93
2018-11-03T00:57:45.595Z,13.57
2018-11-03T01:00:16.966Z,13.67
2018-11-03T01:02:47.098Z,13.57
2018-11-03T01:05:16.067Z,13.40
2018-11-03T01:07:45.409Z,14.60
2018-11-03T01:10:14.915Z,13.33
2018-11-03T01:12:43.891Z,14.03
2018-11-03T01:15:14.175Z,13.77
2018-11-03T01:17:43.201Z,14.47
2018-11-03T01:20:13.710Z,14.10
2018-11-03T01:22:42.975Z,15.10
2018-11-03T01:25:12.176Z,14.30
2018-11-03T01:27:41.375Z,14.10
2018-11-03T01:30:12.493Z,13.90
2018-11-03T01:32:41.790Z,13.97
2018-11-03T01:35:10.945Z,14.20
2018-11-03T01:37:40.624Z,16.00
2018-11-03T01:40:12.169Z,15.43
2018-11-03T01:42:41.339Z,15.07
2018-11-03T01:45:10.850Z,15.17
2018-11-03T01:47:39.806Z,16.47
2018-11-03T01:50:10.599Z,16.10
2018-11-03T01:52:40.461Z,16.00
2018-11-03T01:55:09.668Z,16.03
2018-11-03T01:57:39.129Z,16.43
2018-11-03T02:00:09.557Z,14.93
2018-11-03T02:02:38.639Z,16.10
2018-11-03T02:05:08.386Z,17.53
2018-11-03T02:07:37.314Z,18.10
2018-11-03T02:10:08.203Z,18.57
2018-11-03T02:12:37.172Z,16.67
2018-11-03T02:15:06.555Z,16.63
2018-11-03T02:17:35.662Z,16.07
2018-11-03T02:20:05.406Z,17.80
2018-11-03T02:22:34.367Z,18.03
2018-11-03T02:25:03.545Z,16.33
2018-11-03T02:27:32.733Z,16.63
2018-11-03T02:30:01.667Z,17.70
2018-11-03T02:32:30.632Z,16.53
2018-11-03T02:34:59.826Z,17.00
2018-11-03T02:37:29.025Z,16.57
2018-11-03T02:39:57.979Z,16.63
2018-11-03T02:42:26.947Z,16.27
2018-11-03T02:44:55.968Z,16.90
2018-11-03T02:47:24.933Z,17.27
2018-11-03T02:49:53.874Z,16.63
2018-11-03T02:52:23.071Z,17.33
2018-11-03T02:54:52.035Z,17.10
2018-11-03T02:57:21.231Z,16.23
2018-11-03T02:59:50.415Z,18.27
2018-11-03T03:02:19.597Z,17.73
2018-11-03T03:04:48.546Z,17.40
2018-11-03T03:07:17.490Z,18.63
2018-11-03T03:09:46.424Z,18.13
2018-11-03T03:12:15.410Z,17.73
2018-11-03T03:14:44.579Z,18.53
2018-11-03T03:17:13.531Z,18.13
2018-11-03T03:19:42.481Z,17.67
2018-11-03T03:22:11.667Z,18.13
2018-11-03T03:24:40.849Z,18.80
2018-11-03T03:27:10.096Z,17.77
2018-11-03T03:29:39.115Z,17.23
2018-11-03T03:32:08.499Z,18.07
2018-11-03T03:34:37.481Z,18.03
2018-11-03T03:37:06.708Z,17.17
2018-11-03T03:39:35.907Z,17.33
2018-11-03T03:42:04.924Z,17.47
2018-11-03T03:44:33.942Z,17.40
2018-11-03T03:47:02.894Z,16.70
2018-11-03T03:49:31.834Z,17.53
2018-11-03T03:52:00.821Z,17.77
2018-11-03T03:54:29.739Z,17.27
2018-11-03T03:56:58.958Z,16.63
2018-11-03T03:59:27.901Z,17.33
2018-11-03T04:01:57.674Z,17.07
2018-11-03T04:04:26.602Z,17.27
2018-11-03T04:06:55.555Z,18.20
2018-11-03T04:09:24.748Z,17.50
2018-11-03T04:11:53.694Z,17.43
2018-11-03T04:14:22.870Z,17.27
2018-11-03T04:16:51.878Z,16.80
2018-11-03T04:19:21.043Z,18.10
2018-11-03T04:21:49.971Z,19.07
2018-11-03T04:24:18.950Z,17.07
2018-11-03T04:26:48.128Z,17.77
2018-11-03T04:29:17.268Z,19.57
2018-11-03T04:31:46.203Z,19.43
2018-11-03T04:34:15.174Z,19.83
2018-11-03T04:36:44.349Z,20.57
2018-11-03T04:39:13.558Z,19.57
2018-11-03T04:41:42.467Z,20.73
2018-11-03T04:44:11.416Z,21.67
2018-11-03T04:46:40.357Z,20.03
2018-11-03T04:49:09.298Z,21.93
2018-11-03T04:51:38.439Z,21.13
2018-11-03T04:54:07.608Z,21.60
2018-11-03T04:56:36.544Z,19.73
2018-11-03T04:59:05.678Z,21.93
2018-11-03T05:01:34.841Z,23.23
2018-11-03T05:04:04.068Z,21.27
2018-11-03T05:06:33.259Z,22.63
2018-11-03T05:09:02.467Z,22.30
2018-11-03T05:11:31.430Z,22.03
2018-11-03T05:14:00.611Z,21.40
2018-11-03T05:16:29.559Z,21.77
2018-11-03T05:18:58.487Z,22.50
2018-11-03T05:21:27.491Z,21.47
2018-11-03T05:23:56.623Z,22.83
2018-11-03T05:26:25.611Z,21.33
2018-11-03T05:28:54.792Z,22.13
2018-11-03T05:31:23.746Z,21.80
2018-11-03T05:33:52.935Z,21.23
2018-11-03T05:36:21.880Z,21.23
2018-11-03T05:38:51.140Z,19.73
2018-11-03T05:41:20.054Z,20.60
2018-11-03T05:43:49.099Z,19.10
2018-11-03T05:46:18.135Z,20.20
2018-11-03T05:48:47.263Z,21.03
2018-11-03T05:51:16.180Z,21.13
2018-11-03T05:53:45.392Z,19.10
2018-11-03T05:56:14.343Z,19.97
2018-11-03T05:58:43.345Z,20.13
2018-11-03T06:01:12.278Z,19.13
2018-11-03T06:03:41.691Z,20.93
2018-11-03T06:06:10.638Z,19.97
2018-11-03T06:08:39.866Z,22.13
2018-11-03T06:11:08.758Z,21.53
2018-11-03T06:13:37.686Z,21.07
2018-11-03T06:16:06.636Z,20.07
2018-11-03T06:18:35.584Z,20.57
2018-11-03T06:21:04.579Z,19.63
2018-11-03T06:23:33.807Z,19.37
2018-11-03T06:26:02.738Z,20.20
2018-11-03T06:28:31.715Z,19.73
2018-11-03T06:31:00.671Z,20.17
2018-11-03T06:33:29.691Z,20.00
2018-11-03T06:35:58.969Z,20.07
2018-11-03T06:38:27.906Z,19.23
2018-11-03T06:40:57.124Z,20.67
2018-11-03T06:43:26.046Z,20.87
2018-11-03T06:45:55.261Z,21.67
2018-11-03T06:48:24.254Z,20.37
2018-11-03T06:50:53.292Z,21.77
2018-11-03T06:53:22.372Z,19.77
2018-11-03T06:55:51.474Z,19.83
2018-11-03T06:58:20.657Z,20.87
2018-11-03T07:00:49.623Z,21.20
2018-11-03T07:03:18.797Z,19.70
2018-11-03T07:05:47.793Z,19.80
2018-11-03T07:08:16.951Z,21.63
2018-11-03T07:10:46.033Z,20.73
2018-11-03T07:13:15.003Z,21.67
2018-11-03T07:15:43.924Z,21.33
2018-11-03T07:18:13.098Z,21.70
2018-11-03T07:20:42.060Z,20.70
2018-11-03T07:23:11.036Z,20.37
2018-11-03T07:25:40.037Z,21.67
2018-11-03T07:28:09.234Z,21.40
2018-11-03T07:30:38.162Z,21.20
2018-11-03T07:33:07.339Z,20.60
2018-11-03T07:35:36.466Z,23.47
2018-11-03T07:38:06.155Z,22.10
2018-11-03T07:40:35.376Z,22.87
2018-11-03T07:43:04.483Z,21.63
2018-11-03T07:45:33.886Z,23.23
2018-11-03T07:48:02.901Z,23.07
2018-11-03T07:50:32.287Z,20.07
2018-11-03T07:53:01.283Z,21.83
2018-11-03T07:55:30.513Z,22.57
2018-11-03T07:57:59.694Z,23.47
2018-11-03T08:00:29.152Z,21.23
2018-11-03T08:02:58.056Z,22.27
2018-11-03T08:05:27.081Z,20.67
2018-11-03T08:07:56.291Z,22.10
2018-11-03T08:10:25.266Z,24.07
2018-11-03T08:12:54.472Z,21.83
2018-11-03T08:15:23.557Z,22.13
2018-11-03T08:17:52.755Z,22.00
2018-11-03T08:20:21.921Z,23.27
2018-11-03T08:22:51.182Z,22.50
2018-11-03T08:25:20.400Z,21.60
2018-11-03T08:27:49.348Z,20.77
2018-11-03T08:30:18.555Z,21.13
2018-11-03T08:32:47.502Z,21.33
2018-11-03T08:35:16.450Z,21.97
2018-11-03T08:37:45.390Z,23.73
2018-11-03T08:40:14.352Z,24.80
2018-11-03T08:42:43.314Z,22.60
2018-11-03T08:45:12.721Z,21.03
2018-11-03T08:47:41.688Z,21.90
2018-11-03T08:50:12.056Z,21.27
2018-11-03T08:52:41.606Z,21.23
2018-11-03T08:55:12.070Z,22.17
2018-11-03T08:57:41.349Z,21.40
2018-11-03T09:00:12.377Z,22.43
2018-11-03T09:02:41.952Z,20.73
2018-11-03T09:05:11.839Z,22.03
2018-11-03T09:07:41.378Z,21.67
2018-11-03T09:10:12.207Z,21.47
2018-11-03T09:12:41.168Z,22.10
2018-11-03T09:15:11.766Z,22.80
2018-11-03T09:17:41.542Z,22.33
2018-11-03T09:20:12.223Z,21.80
2018-11-03T09:22:41.551Z,21.87
2018-11-03T09:25:12.829Z,21.30
2018-11-03T09:27:42.829Z,22.20
2018-11-03T09:30:15.217Z,20.70
2018-11-03T09:32:44.401Z,22.33
2018-11-03T09:35:14.354Z,22.07
2018-11-03T09:37:43.340Z,21.87
2018-11-03T09:40:14.495Z,21.97
2018-11-03T09:42:44.633Z,21.63
2018-11-03T09:45:14.158Z,21.03
2018-11-03T09:47:43.501Z,19.57
2018-11-03T09:50:13.714Z,21.17
2018-11-03T09:52:43.022Z,20.93
2018-11-03T09:55:15.728Z,19.00
2018-11-03T09:57:44.666Z,21.40
2018-11-03T10:00:15.211Z,20.13
2018-11-03T10:02:44.378Z,21.93
2018-11-03T10:05:14.391Z,21.13
2018-11-03T10:07:43.650Z,21.37
2018-11-03T10:10:14.441Z,20.53
2018-11-03T10:12:43.391Z,21.43
2018-11-03T10:15:13.835Z,21.80
2018-11-03T10:17:43.513Z,22.53
2018-11-03T10:20:12.532Z,22.43
2018-11-03T10:22:41.779Z,21.23
2018-11-03T10:25:13.554Z,20.97
2018-11-03T10:27:43.639Z,20.27
2018-11-03T10:30:14.180Z,21.23
2018-11-03T10:32:43.688Z,22.33
2018-11-03T10:35:13.225Z,20.70
2018-11-03T10:37:42.442Z,20.73
2018-11-03T10:40:13.385Z,21.73
2018-11-03T10:42:42.611Z,23.27
2018-11-03T10:45:13.147Z,23.63
2018-11-03T10:47:42.371Z,21.30
2018-11-03T10:50:14.207Z,22.17
2018-11-03T10:52:43.970Z,21.17
2018-11-03T10:55:20.127Z,20.33
2018-11-03T10:57:49.072Z,22.30
2018-11-03T11:00:24.582Z,20.23
2018-11-03T11:02:59.719Z,18.77
2018-11-03T11:05:34.990Z,20.67
2018-11-03T11:08:09.588Z,21.87
2018-11-03T11:10:44.076Z,20.43
2018-11-03T11:13:18.086Z,20.87
2018-11-03T11:15:47.060Z,19.23
2018-11-03T11:18:16.073Z,18.77
2018-11-03T11:20:45.289Z,17.67
2018-11-03T11:23:14.512Z,17.07
2018-11-03T11:25:43.456Z,19.10
2018-11-03T11:28:12.675Z,18.90
2018-11-03T11:30:43.035Z,18.40
2018-11-03T11:33:13.358Z,18.13
2018-11-03T11:35:42.636Z,18.10
2018-11-03T11:38:12.283Z,17.13
2018-11-03T11:40:41.834Z,17.20
2018-11-03T11:43:12.073Z,17.87
2018-11-03T11:45:41.295Z,17.13
2018-11-03T11:48:10.282Z,17.33
2018-11-03T11:50:39.307Z,15.87
2018-11-03T11:53:08.323Z,15.83
2018-11-03T11:55:37.279Z,15.10
2018-11-03T11:58:06.630Z,15.50
2018-11-03T12:00:35.925Z,15.50
2018-11-03T12:03:05.056Z,13.87
2018-11-03T12:05:34.263Z,14.53
2018-11-03T12:08:03.323Z,14.87
2018-11-03T12:10:32.251Z,13.60
2018-11-03T12:13:01.239Z,13.83
2018-11-03T12:15:30.435Z,13.17
2018-11-03T12:17:59.648Z,12.47
2018-11-03T12:20:28.589Z,12.17
2018-11-03T12:22:57.787Z,11.10
2018-11-03T12:25:26.852Z,12.80
2018-11-03T12:27:55.785Z,12.20
2018-11-03T12:30:24.714Z,11.67
2018-11-03T12:32:53.959Z,10.93
2018-11-03T12:35:22.974Z,13.33
2018-11-03T12:37:52.168Z,12.73
2018-11-03T12:40:21.142Z,12.00
2018-11-03T12:42:50.339Z,11.47
2018-11-03T12:45:19.371Z,11.37
2018-11-03T12:47:48.696Z,9.67
2018-11-03T12:50:18.318Z,11.60
2018-11-03T12:52:47.331Z,12.10
2018-11-03T12:55:16.515Z,11.60
2018-11-03T12:57:45.512Z,11.47
2018-11-03T13:00:15.856Z,12.30
2018-11-03T13:02:46.007Z,10.17
2018-11-03T13:05:15.377Z,10.23
2018-11-03T13:07:45.531Z,9.83
2018-11-03T13:10:14.753Z,9.43
2018-11-03T13:12:43.799Z,10.73
2018-11-03T13:15:13.824Z,9.77
2018-11-03T13:17:42.995Z,9.50
2018-11-03T13:20:12.984Z,9.80
2018-11-03T13:22:42.661Z,9.90
2018-11-03T13:25:12.084Z,8.53
2018-11-03T13:27:41.816Z,10.07
2018-11-03T13:30:12.665Z,9.00
2018-11-03T13:32:41.827Z,9.70
2018-11-03T13:35:12.175Z,10.00
2018-11-03T13:37:41.514Z,10.00
2018-11-03T13:40:11.974Z,10.47
2018-11-03T13:42:41.240Z,10.53
2018-11-03T13:45:11.002Z,10.00
2018-11-03T13:47:40.279Z,10.40
2018-11-03T13:50:14.060Z,9.97
2018-11-03T13:52:45.371Z,10.00
2018-11-03T13:55:14.466Z,9.97
2018-11-03T13:57:44.846Z,9.73
2018-11-03T14:00:18.144Z,8.73
2018-11-03T14:02:47.947Z,8.47
2018-11-03T14:05:16.963Z,7.80
2018-11-03T14:07:46.164Z,8.03
2018-11-03T14:10:16.328Z,7.57
2018-11-03T14:12:46.025Z,7.20
2018-11-03T14:15:16.588Z,7.47
2018-11-03T14:17:45.544Z,7.83
2018-11-03T14:20:15.508Z,7.60
2018-11-03T14:22:45.291Z,7.60
2018-11-03T14:25:15.671Z,7.27
2018-11-03T14:27:45.879Z,6.87
2018-11-03T14:30:16.287Z,7.17
2018-11-03T14:32:45.515Z,6.57
2018-11-03T14:35:15.378Z,6.67
2018-11-03T14:37:44.538Z,6.70
2018-11-03T14:40:14.823Z,6.43
2018-11-03T14:42:44.534Z,6.33
2018-11-03T14:45:14.702Z,5.93
2018-11-03T14:47:43.872Z,6.83
2018-11-03T14:50:12.925Z,7.40
2018-11-03T14:52:42.858Z,6.90
2018-11-03T14:55:12.645Z,6.43
2018-11-03T14:57:41.556Z,6.37
2018-11-03T15:00:11.871Z,6.40
2018-11-03T15:02:41.380Z,6.67
2018-11-03T15:05:11.268Z,6.67
2018-11-03T15:07:40.311Z,6.87
2018-11-03T15:10:10.592Z,6.23
2018-11-03T15:12:40.094Z,6.20
2018-11-03T15:15:11.573Z,6.10
2018-11-03T15:17:40.603Z,6.43
2018-11-03T15:20:10.535Z,6.40
2018-11-03T15:22:39.800Z,6.50
2018-11-03T15:25:09.195Z,6.43
2018-11-03T15:27:38.500Z,6.53
2018-11-03T15:30:09.844Z,6.60
2018-11-03T15:32:38.980Z,6.30
2018-11-03T15:35:08.676Z,5.83
2018-11-03T15:37:38.821Z,6.30
2018-11-03T15:40:10.580Z,6.63
2018-11-03T15:42:39.527Z,6.30
2018-11-03T15:45:11.094Z,6.70
2018-11-03T15:47:40.222Z,7.03
2018-11-03T15:50:09.468Z,6.90
2018-11-03T15:52:38.640Z,7.70
2018-11-03T15:55:07.835Z,8.67
2018-11-03T15:57:37.329Z,8.50
2018-11-03T16:00:10.793Z,8.50
2018-11-03T16:02:39.751Z,8.30
2018-11-03T16:05:08.916Z,7.77
2018-11-03T16:07:37.877Z,8.83
2018-11-03T16:10:07.891Z,8.30
2018-11-03T16:12:37.152Z,8.40
2018-11-03T16:15:07.453Z,9.73
2018-11-03T16:17:36.386Z,8.60
2018-11-03T16:20:06.502Z,9.07
2018-11-03T16:22:35.476Z,9.67
2018-11-03T16:25:04.437Z,8.33
2018-11-03T16:27:33.713Z,8.27
2018-11-03T16:30:02.690Z,8.90
2018-11-03T16:32:32.609Z,8.53
2018-11-03T16:35:01.644Z,9.10
2018-11-03T16:37:30.625Z,10.50
2018-11-03T16:39:59.620Z,10.20
2018-11-03T16:42:28.725Z,9.97
2018-11-03T16:44:57.675Z,10.30
2018-11-03T16:47:26.711Z,9.80
2018-11-03T16:49:55.660Z,10.00
2018-11-03T16:52:24.654Z,10.97
2018-11-03T16:54:53.816Z,10.17
2018-11-03T16:57:22.764Z,11.80
2018-11-03T16:59:51.983Z,11.80
2018-11-03T17:02:20.974Z,10.83
2018-11-03T17:04:49.899Z,12.73
2018-11-03T17:07:18.842Z,12.57
2018-11-03T17:09:47.774Z,11.53
2018-11-03T17:12:16.984Z,11.33
2018-11-03T17:14:45.930Z,13.17
2018-11-03T17:17:15.110Z,12.90
2018-11-03T17:19:44.034Z,12.90
2018-11-03T17:22:13.170Z,12.90
2018-11-03T17:24:42.140Z,13.77
2018-11-03T17:27:11.067Z,13.80
2018-11-03T17:29:40.263Z,14.17
2018-11-03T17:32:09.259Z,13.57
2018-11-03T17:34:38.190Z,14.40
2018-11-03T17:37:07.384Z,13.47
2018-11-03T17:39:36.608Z,12.80
2018-11-03T17:42:05.746Z,12.37
2018-11-03T17:44:34.734Z,13.90
2018-11-03T17:47:03.731Z,14.53
2018-11-03T17:49:32.655Z,13.73
2018-11-03T17:52:01.599Z,14.87
2018-11-03T17:54:30.788Z,14.47
2018-11-03T17:56:59.813Z,15.17
2018-11-03T17:59:29.345Z,15.73
2018-11-03T18:01:58.780Z,15.10
2018-11-03T18:04:28.293Z,15.50
2018-11-03T18:06:57.491Z,15.80
2018-11-03T18:09:26.621Z,14.67
2018-11-03T18:11:55.809Z,15.30
2018-11-03T18:14:24.776Z,15.03
2018-11-03T18:16:53.772Z,14.50
2018-11-03T18:19:22.730Z,13.83
2018-11-03T18:21:51.918Z,14.33
2018-11-03T18:24:20.892Z,14.00
2018-11-03T18:26:49.818Z,14.00
2018-11-03T18:29:18.775Z,13.53
2018-11-03T18:31:47.749Z,14.70
2018-11-03T18:34:16.700Z,14.00
2018-11-03T18:36:45.644Z,13.30
2018-11-03T18:39:14.788Z,14.23
2018-11-03T18:41:44.156Z,13.13
2018-11-03T18:44:12.997Z,13.33
2018-11-03T18:46:41.944Z,12.87
2018-11-03T18:49:10.900Z,12.57
2018-11-03T18:51:40.167Z,12.83
2018-11-03T18:54:09.104Z,13.37
2018-11-03T18:56:38.032Z,11.40
2018-11-03T18:59:07.525Z,12.03
2018-11-03T19:01:36.463Z,12.30
2018-11-03T19:04:05.631Z,11.30
2018-11-03T19:06:34.614Z,11.47
2018-11-03T19:09:03.926Z,11.03
2018-11-03T19:11:32.866Z,11.37
2018-11-03T19:14:01.798Z,11.93
2018-11-03T19:16:30.735Z,12.53
2018-11-03T19:18:59.666Z,11.97
2018-11-03T19:21:28.622Z,11.73
2018-11-03T19:23:57.834Z,11.80
2018-11-03T19:26:26.994Z,11.43
2018-11-03T19:28:55.936Z,12.03
2018-11-03T19:31:25.119Z,11.37
2018-11-03T19:33:54.122Z,12.27
2018-11-03T19:36:23.135Z,12.43
2018-11-03T19:38:52.106Z,12.40
2018-11-03T19:41:21.246Z,12.20
2018-11-03T19:43:50.226Z,12.73
2018-11-03T19:46:19.186Z,12.13
2018-11-03T19:48:48.150Z,13.17
2018-11-03T19:51:17.090Z,12.90
2018-11-03T19:53:46.270Z,13.67
2018-11-03T19:56:15.222Z,11.73
2018-11-03T19:58:44.423Z,13.80
2018-11-03T20:01:13.353Z,14.00
2018-11-03T20:03:42.523Z,13.10
2018-11-03T20:06:11.711Z,13.93
2018-11-03T20:08:41.043Z,13.90
2018-11-03T20:11:09.980Z,13.63
2018-11-03T20:13:38.907Z,15.13
2018-11-03T20:16:07.859Z,13.73
2018-11-03T20:18:36.806Z,14.23
2018-11-03T20:21:12.851Z,13.93
2018-11-03T20:23:42.015Z,13.43
2018-11-03T20:26:10.997Z,14.27
2018-11-03T20:28:39.926Z,13.90
2018-11-03T20:31:08.947Z,14.13
2018-11-03T20:33:37.883Z,13.70
2018-11-03T20:36:06.798Z,14.83
2018-11-03T20:38:35.802Z,14.93
2018-11-03T20:41:05.215Z,15.27
2018-11-03T20:43:34.403Z,13.13
2018-11-03T20:46:03.572Z,14.97
2018-11-03T20:48:33.003Z,15.00
2018-11-03T20:51:07.371Z,14.87
2018-11-03T20:53:36.977Z,14.80
2018-11-03T20:56:06.462Z,13.93
2018-11-03T20:58:35.413Z,16.13
2018-11-03T21:01:04.595Z,14.13
2018-11-03T21:03:33.696Z,14.80
2018-11-03T21:06:02.651Z,14.23
2018-11-03T21:08:31.599Z,14.90
2018-11-03T21:11:00.556Z,14.40
2018-11-03T21:13:29.514Z,14.90
2018-11-03T21:15:58.469Z,14.87
2018-11-03T21:18:27.630Z,15.33
2018-11-03T21:20:56.956Z,16.40
2018-11-03T21:23:25.978Z,14.13
2018-11-03T21:25:54.855Z,14.40
2018-11-03T21:28:24.038Z,14.20
2018-11-03T21:30:53.023Z,14.30
2018-11-03T21:33:22.316Z,13.63
2018-11-03T21:35:51.238Z,14.83
2018-11-03T21:38:20.196Z,15.47
2018-11-03T21:40:49.114Z,15.20
2018-11-03T21:43:18.286Z,14.80
2018-11-03T21:45:47.246Z,15.10
2018-11-03T21:48:16.406Z,13.77
2018-11-03T21:50:45.417Z,15.30
2018-11-03T21:53:14.358Z,14.17
2018-11-03T21:55:43.342Z,14.10
2018-11-03T21:58:12.616Z,15.23
2018-11-03T22:00:41.580Z,14.90
2018-11-03T22:03:10.739Z,14.30
2018-11-03T22:05:39.662Z,15.63
2018-11-03T22:08:08.592Z,15.27
2018-11-03T22:10:37.540Z,15.57
2018-11-03T22:13:06.524Z,15.13
2018-11-03T22:15:35.524Z,14.67
2018-11-03T22:18:04.459Z,14.97
2018-11-03T22:20:33.690Z,15.53
2018-11-03T22:23:02.630Z,16.37
2018-11-03T22:25:31.839Z,14.97
2018-11-03T22:28:01.185Z,15.40
2018-11-03T22:30:30.091Z,14.53
2018-11-03T22:32:59.014Z,16.77
2018-11-03T22:35:27.940Z,16.20
2018-11-03T22:37:56.991Z,15.30
2018-11-03T22:40:26.177Z,16.03
2018-11-03T22:42:55.205Z,15.53
2018-11-03T22:45:24.383Z,16.63
2018-11-03T22:47:53.306Z,16.87
2018-11-03T22:50:22.571Z,16.60
2018-11-03T22:52:51.519Z,15.73
2018-11-03T22:55:20.772Z,16.57
2018-11-03T22:57:49.958Z,16.23
2018-11-03T23:00:18.999Z,15.40
2018-11-03T23:02:48.200Z,16.83
2018-11-03T23:05:17.151Z,17.03
2018-11-03T23:07:46.404Z,15.63
2018-11-03T23:10:15.311Z,15.90
2018-11-03T23:12:44.508Z,17.13
2018-11-03T23:15:13.437Z,17.20
2018-11-03T23:17:42.649Z,16.83
2018-11-03T23:20:13.636Z,16.33
2018-11-03T23:22:42.860Z,16.70
2018-11-03T23:25:12.051Z,17.10
2018-11-03T23:27:41.283Z,16.50
2018-11-03T23:30:12.265Z,17.30
2018-11-03T23:32:41.530Z,18.03
2018-11-03T23:35:12.195Z,18.13
2018-11-03T23:37:41.555Z,19.33
2018-11-03T23:40:11.376Z,17.93
2018-11-03T23:42:40.592Z,19.07
2018-11-03T23:45:10.223Z,19.83
2018-11-03T23:47:39.736Z,18.43
2018-11-03T23:50:11.172Z,18.70
2018-11-03T23:52:46.046Z,18.80
2018-11-03T23:55:15.255Z,18.67
2018-11-03T23:57:44.212Z,19.53
